createdAt,value
2023-05-02T00:01:02.260Z,0.40
2023-05-02T00:03:29.118Z,1.63
2023-05-02T00:05:55.950Z,1.25
2023-05-02T00:08:22.716Z,0.45
2023-05-02T00:10:49.459Z,0.45
2023-05-02T00:13:16.387Z,0.45
2023-05-02T00:15:43.048Z,0.28
2023-05-02T00:18:10.238Z,0.60
2023-05-02T00:20:37.012Z,0.40
2023-05-02T00:23:03.760Z,0.40
2023-05-02T00:25:30.560Z,0.50
2023-05-02T00:27:57.240Z,0.47
2023-05-02T00:30:23.941Z,0.45
2023-05-02T00:32:50.729Z,0.80
2023-05-02T00:35:17.569Z,0.73
2023-05-02T00:37:44.312Z,0.70
2023-05-02T00:40:11.523Z,0.60
2023-05-02T00:42:38.293Z,0.70
2023-05-02T00:45:06.786Z,2.25
2023-05-02T00:47:34.175Z,0.50
2023-05-02T00:50:01.785Z,0.82
2023-05-02T00:52:29.242Z,1.35
2023-05-02T00:54:56.167Z,0.75
2023-05-02T00:57:23.246Z,0.57
2023-05-02T00:59:51.091Z,0.82
2023-05-02T01:02:33.246Z,2.65
2023-05-02T01:05:03.607Z,0.70
2023-05-02T01:07:37.186Z,1.08
2023-05-02T01:10:15.059Z,0.88
2023-05-02T01:13:07.626Z,0.80
2023-05-02T01:15:37.301Z,1.17
2023-05-02T01:18:06.240Z,1.88
2023-05-02T01:20:41.223Z,0.98
2023-05-02T01:23:32.734Z,0.85
2023-05-02T01:26:20.596Z,1.98
2023-05-02T01:29:04.817Z,1.00
2023-05-02T01:31:41.852Z,0.75
2023-05-02T01:34:11.046Z,1.00
2023-05-02T01:36:43.288Z,1.38
2023-05-02T01:39:15.858Z,1.52
2023-05-02T01:41:44.886Z,1.00
2023-05-02T01:44:12.565Z,1.10
2023-05-02T01:46:42.325Z,1.90
2023-05-02T01:49:09.370Z,1.83
2023-05-02T01:51:41.184Z,1.10
2023-05-02T01:54:10.365Z,1.30
2023-05-02T01:56:39.270Z,3.42
2023-05-02T01:59:09.868Z,1.45
2023-05-02T02:01:39.282Z,2.00
2023-05-02T02:04:08.964Z,1.23
2023-05-02T02:06:36.042Z,1.30
2023-05-02T02:09:03.771Z,1.27
2023-05-02T02:11:59.923Z,1.13
2023-05-02T02:14:33.616Z,1.40
2023-05-02T02:17:02.306Z,1.17
2023-05-02T02:19:30.795Z,1.50
2023-05-02T02:21:59.175Z,1.38
2023-05-02T02:24:26.816Z,1.80
2023-05-02T02:26:53.803Z,2.00
2023-05-02T02:29:20.496Z,3.03
2023-05-02T02:31:47.185Z,1.48
2023-05-02T02:34:13.955Z,1.90
2023-05-02T02:37:05.486Z,2.25
2023-05-02T02:39:50.982Z,2.08
2023-05-02T02:42:44.818Z,3.72
2023-05-02T02:45:44.076Z,2.10
2023-05-02T02:48:35.977Z,3.15
2023-05-02T02:51:22.788Z,2.22
2023-05-02T02:54:05.849Z,2.90
2023-05-02T02:56:41.901Z,2.17
2023-05-02T02:59:25.000Z,4.18
2023-05-02T03:02:17.253Z,2.08
2023-05-02T03:04:46.574Z,3.63
2023-05-02T03:07:13.913Z,1.73
2023-05-02T03:09:48.417Z,3.58
2023-05-02T03:12:15.431Z,2.53
2023-05-02T03:14:42.442Z,1.90
2023-05-02T03:17:09.100Z,4.03
2023-05-02T03:19:36.324Z,3.63
2023-05-02T03:22:03.705Z,2.58
2023-05-02T03:24:30.435Z,3.33
2023-05-02T03:26:59.068Z,3.47
2023-05-02T03:29:26.355Z,3.88
2023-05-02T03:31:53.176Z,3.78
2023-05-02T03:34:21.957Z,3.03
2023-05-02T03:36:49.161Z,3.53
2023-05-02T03:39:15.948Z,3.03
2023-05-02T03:41:43.885Z,3.92
2023-05-02T03:44:10.765Z,2.38
2023-05-02T03:46:37.918Z,2.63
2023-05-02T03:49:04.702Z,3.75
2023-05-02T03:51:32.012Z,2.80
2023-05-02T03:54:00.226Z,2.45
2023-05-02T03:56:26.892Z,2.75
2023-05-02T03:58:53.920Z,5.60
2023-05-02T04:01:20.633Z,3.38
2023-05-02T04:03:47.475Z,3.65
2023-05-02T04:06:14.318Z,2.92
2023-05-02T04:08:41.088Z,3.13
2023-05-02T04:11:07.782Z,2.42
2023-05-02T04:13:34.588Z,2.97
2023-05-02T04:16:01.279Z,3.88
2023-05-02T04:18:28.011Z,3.08
2023-05-02T04:20:54.826Z,3.05
2023-05-02T04:23:21.549Z,3.40
2023-05-02T04:25:53.531Z,3.78
2023-05-02T04:28:22.021Z,3.10
2023-05-02T04:30:50.104Z,3.05
2023-05-02T04:33:18.776Z,6.00
2023-05-02T04:35:45.527Z,2.40
2023-05-02T04:38:12.571Z,5.38
2023-05-02T04:40:40.302Z,4.85
2023-05-02T04:43:07.535Z,3.70
2023-05-02T04:45:36.993Z,4.05
2023-05-02T04:48:04.513Z,4.32
2023-05-02T04:50:32.242Z,4.03
2023-05-02T04:52:59.628Z,3.30
2023-05-02T04:55:26.529Z,4.63
2023-05-02T04:57:53.197Z,4.38
2023-05-02T05:00:20.008Z,3.55
2023-05-02T05:02:46.801Z,5.53
2023-05-02T05:05:13.762Z,4.60
2023-05-02T05:07:40.911Z,3.53
2023-05-02T05:10:08.434Z,4.22
2023-05-02T05:12:35.137Z,4.18
2023-05-02T05:15:01.851Z,4.43
2023-05-02T05:17:28.583Z,4.40
2023-05-02T05:19:55.278Z,3.95
2023-05-02T05:22:22.156Z,3.80
2023-05-02T05:24:55.309Z,4.30
2023-05-02T05:27:22.066Z,4.43
2023-05-02T05:29:48.809Z,5.47
2023-05-02T05:32:15.702Z,3.55
2023-05-02T05:34:42.578Z,3.58
2023-05-02T05:37:09.300Z,4.10
2023-05-02T05:39:35.998Z,4.13
2023-05-02T05:42:03.576Z,6.80
2023-05-02T05:44:30.261Z,4.80
2023-05-02T05:46:57.078Z,6.30
2023-05-02T05:49:24.475Z,4.38
2023-05-02T05:51:51.489Z,3.35
2023-05-02T05:54:18.880Z,4.55
2023-05-02T05:56:45.966Z,9.02
2023-05-02T05:59:13.005Z,5.72
2023-05-02T06:01:40.007Z,5.47
2023-05-02T06:04:07.548Z,5.32
2023-05-02T06:06:35.018Z,5.38
2023-05-02T06:09:01.856Z,7.70
2023-05-02T06:11:28.662Z,5.93
2023-05-02T06:13:55.789Z,4.03
2023-05-02T06:16:22.559Z,2.97
2023-05-02T06:18:51.793Z,4.30
2023-05-02T06:21:18.723Z,3.75
2023-05-02T06:23:45.997Z,3.33
2023-05-02T06:26:12.729Z,3.28
2023-05-02T06:28:39.396Z,2.75
2023-05-02T06:31:06.907Z,2.97
2023-05-02T06:33:34.015Z,3.42
2023-05-02T06:36:01.853Z,4.85
2023-05-02T06:38:29.015Z,4.90
2023-05-02T06:40:55.922Z,4.50
2023-05-02T06:43:22.841Z,2.90
2023-05-02T06:45:52.285Z,3.20
2023-05-02T06:48:19.266Z,3.97
2023-05-02T06:50:46.005Z,2.78
2023-05-02T06:53:12.667Z,1.90
2023-05-02T06:55:39.443Z,3.58
2023-05-02T06:58:06.163Z,5.10
2023-05-02T07:00:33.132Z,4.53
2023-05-02T07:02:59.800Z,3.35
2023-05-02T07:05:26.756Z,4.57
2023-05-02T07:07:53.599Z,2.58
2023-05-02T07:10:20.292Z,2.75
2023-05-02T07:12:46.986Z,2.55
2023-05-02T07:15:14.060Z,2.55
2023-05-02T07:17:41.049Z,4.72
2023-05-02T07:20:08.780Z,3.20
2023-05-02T07:22:35.472Z,1.73
2023-05-02T07:25:03.037Z,2.65
2023-05-02T07:27:29.886Z,3.28
2023-05-02T07:29:56.718Z,1.60
2023-05-02T07:32:26.148Z,2.33
2023-05-02T07:34:54.412Z,3.88
2023-05-02T07:37:21.901Z,2.05
2023-05-02T07:39:48.716Z,2.40
2023-05-02T07:42:15.564Z,2.00
2023-05-02T07:44:42.432Z,2.08
2023-05-02T07:47:09.854Z,1.38
2023-05-02T07:49:36.987Z,1.65
2023-05-02T07:52:04.533Z,1.50
2023-05-02T07:54:31.514Z,2.15
2023-05-02T07:57:02.177Z,2.28
2023-05-02T07:59:31.048Z,1.77
2023-05-02T08:01:57.928Z,1.08
2023-05-02T08:04:24.846Z,1.90
2023-05-02T08:06:51.929Z,1.42
2023-05-02T08:09:18.640Z,0.80
2023-05-02T08:11:45.370Z,2.47
2023-05-02T08:14:12.142Z,1.02
2023-05-02T08:16:38.963Z,1.00
2023-05-02T08:19:05.693Z,1.13
2023-05-02T08:21:32.476Z,0.60
2023-05-02T08:23:59.726Z,0.80
2023-05-02T08:26:27.135Z,2.33
2023-05-02T08:28:55.011Z,0.75
2023-05-02T08:31:21.965Z,1.52
2023-05-02T08:33:48.730Z,0.80
2023-05-02T08:36:17.524Z,3.03
2023-05-02T08:38:45.301Z,1.60
2023-05-02T08:41:17.909Z,1.23
2023-05-02T08:43:45.839Z,0.73
2023-05-02T08:46:14.177Z,0.57
2023-05-02T08:48:42.990Z,1.73
2023-05-02T08:51:17.065Z,2.00
2023-05-02T08:53:44.790Z,1.52
2023-05-02T08:56:12.870Z,0.85
2023-05-02T08:58:41.233Z,0.90
2023-05-02T09:01:15.357Z,0.50
2023-05-02T09:03:44.778Z,0.68
2023-05-02T09:06:19.776Z,0.90
2023-05-02T09:08:49.309Z,1.00
2023-05-02T09:11:17.306Z,0.75
2023-05-02T09:13:46.433Z,1.75
2023-05-02T09:16:19.874Z,1.15
2023-05-02T09:18:48.677Z,0.60
2023-05-02T09:21:20.722Z,1.00
2023-05-02T09:23:50.072Z,0.70
2023-05-02T09:26:16.776Z,0.60
2023-05-02T09:28:48.542Z,1.40
2023-05-02T09:31:43.855Z,1.25
2023-05-02T09:34:12.603Z,1.83
2023-05-02T09:36:41.410Z,1.45
2023-05-02T09:39:15.991Z,0.80
2023-05-02T09:41:43.815Z,1.27
2023-05-02T09:44:12.574Z,0.80
2023-05-02T09:46:44.011Z,0.73
2023-05-02T09:51:37.805Z,1.45
2023-05-02T09:54:04.622Z,1.20
2023-05-02T09:56:31.598Z,0.90
2023-05-02T09:59:27.707Z,0.55
2023-05-02T10:01:59.764Z,0.80
2023-05-02T10:04:27.897Z,0.63
2023-05-02T10:06:55.457Z,2.95
2023-05-02T10:09:23.067Z,0.95
2023-05-02T10:11:54.636Z,1.00
2023-05-02T10:14:23.565Z,1.48
2023-05-02T10:17:09.151Z,1.30
2023-05-02T10:20:03.756Z,0.60
2023-05-02T10:22:31.592Z,1.15
2023-05-02T10:24:59.795Z,0.73
2023-05-02T10:27:26.886Z,1.08
2023-05-02T10:29:54.535Z,0.80
2023-05-02T10:32:24.522Z,1.35
2023-05-02T10:34:52.608Z,1.08
2023-05-02T10:37:20.399Z,1.50
2023-05-02T10:39:47.112Z,1.50
2023-05-02T10:42:14.843Z,1.30
2023-05-02T10:44:41.829Z,1.30
2023-05-02T10:47:26.889Z,1.10
2023-05-02T10:49:55.155Z,1.30
2023-05-02T10:52:31.608Z,1.45
2023-05-02T10:55:16.022Z,2.70
2023-05-02T10:58:00.915Z,1.10
2023-05-02T11:00:33.556Z,3.47
2023-05-02T11:03:01.526Z,0.98
2023-05-02T11:05:28.675Z,0.75
2023-05-02T11:08:20.041Z,1.08
2023-05-02T11:13:14.014Z,0.68
2023-05-02T11:15:40.910Z,1.38
2023-05-02T11:18:12.691Z,0.50
2023-05-02T11:20:43.979Z,1.20
2023-05-02T11:23:16.820Z,1.30
2023-05-02T11:25:48.905Z,1.17
2023-05-02T11:28:34.443Z,1.98
2023-05-02T11:31:01.465Z,0.52
2023-05-02T11:33:31.532Z,0.80
2023-05-02T11:35:58.815Z,2.05
2023-05-02T11:38:27.600Z,0.55
2023-05-02T11:40:59.957Z,2.10
2023-05-02T11:43:31.260Z,1.35
2023-05-02T11:46:00.142Z,1.00
2023-05-02T11:48:27.570Z,1.17
2023-05-02T11:50:58.383Z,0.52
2023-05-02T11:53:26.674Z,0.57
2023-05-02T11:55:55.750Z,2.33
2023-05-02T11:58:24.884Z,0.70
2023-05-02T12:00:53.041Z,0.63
2023-05-02T12:03:40.784Z,0.95
2023-05-02T12:06:16.021Z,0.63
2023-05-02T12:08:44.458Z,2.05
2023-05-02T12:11:15.758Z,1.95
2023-05-02T12:13:48.096Z,2.63
2023-05-02T12:16:15.582Z,0.52
2023-05-02T12:18:42.700Z,2.42
2023-05-02T12:21:09.809Z,2.67
2023-05-02T12:23:37.623Z,1.08
2023-05-02T12:26:18.460Z,0.60
2023-05-02T12:28:50.853Z,0.95
2023-05-02T12:31:17.803Z,1.25
2023-05-02T12:33:46.132Z,1.42
2023-05-02T12:36:12.930Z,2.22
2023-05-02T12:38:39.625Z,1.65
2023-05-02T12:41:06.425Z,1.13
2023-05-02T12:43:47.711Z,1.00
2023-05-02T12:46:14.377Z,1.75
2023-05-02T12:48:41.258Z,1.20
2023-05-02T12:51:21.416Z,0.60
2023-05-02T12:53:48.303Z,0.98
2023-05-02T12:56:15.290Z,1.85
2023-05-02T12:58:44.139Z,1.77
2023-05-02T13:01:11.813Z,0.55
2023-05-02T13:03:38.947Z,0.77
2023-05-02T13:06:06.133Z,1.33
2023-05-02T13:08:34.143Z,0.70
2023-05-02T13:11:02.827Z,1.33
2023-05-02T13:13:29.994Z,3.45
2023-05-02T13:15:56.774Z,2.05
2023-05-02T13:18:23.993Z,2.00
2023-05-02T13:20:50.794Z,1.48
2023-05-02T13:23:17.614Z,1.27
2023-05-02T13:25:44.293Z,2.38
2023-05-02T13:28:10.948Z,0.70
2023-05-02T13:30:37.740Z,1.30
2023-05-02T13:33:04.626Z,2.22
2023-05-02T13:35:33.285Z,1.13
2023-05-02T13:38:00.900Z,2.80
2023-05-02T13:40:27.900Z,3.22
2023-05-02T13:42:54.643Z,1.27
2023-05-02T13:45:21.584Z,2.53
2023-05-02T13:47:48.356Z,1.08
2023-05-02T13:50:15.724Z,1.75
2023-05-02T13:52:42.452Z,2.25
2023-05-02T13:55:09.505Z,1.35
2023-05-02T13:57:36.287Z,1.42
2023-05-02T14:00:04.139Z,1.38
2023-05-02T14:02:31.437Z,0.30
2023-05-02T14:04:58.229Z,0.50
2023-05-02T14:07:24.910Z,1.05
2023-05-02T14:09:51.869Z,1.02
2023-05-02T14:12:18.572Z,0.50
2023-05-02T14:14:45.433Z,2.63
2023-05-02T14:17:12.245Z,0.50
2023-05-02T14:19:38.922Z,0.50
2023-05-02T14:22:05.627Z,0.55
2023-05-02T14:24:32.312Z,0.98
2023-05-02T14:26:59.255Z,1.80
2023-05-02T14:29:26.000Z,0.88
2023-05-02T14:31:52.796Z,0.88
2023-05-02T14:34:19.548Z,2.20
2023-05-02T14:36:46.236Z,2.67
2023-05-02T14:39:13.189Z,1.58
2023-05-02T14:41:39.945Z,1.48
2023-05-02T14:44:06.620Z,2.20
2023-05-02T14:46:33.389Z,2.35
2023-05-02T14:49:00.072Z,1.67
2023-05-02T14:51:26.840Z,1.63
2023-05-02T14:53:54.343Z,2.67
2023-05-02T14:56:22.184Z,1.02
2023-05-02T14:58:48.860Z,0.70
2023-05-02T15:01:21.652Z,0.82
2023-05-02T15:04:05.304Z,0.93
2023-05-02T15:06:33.876Z,0.60
2023-05-02T15:09:01.684Z,1.90
2023-05-02T15:11:28.403Z,0.77
2023-05-02T15:13:56.720Z,1.25
2023-05-02T15:16:26.997Z,6.53
2023-05-02T15:18:54.128Z,2.70
2023-05-02T15:21:21.401Z,0.82
2023-05-02T15:23:48.095Z,1.75
2023-05-02T15:26:14.819Z,0.60
2023-05-02T15:28:41.648Z,0.75
2023-05-02T15:31:08.938Z,1.55
2023-05-02T15:33:35.598Z,3.58
2023-05-02T15:36:02.609Z,2.50
2023-05-02T15:38:29.378Z,2.00
2023-05-02T15:41:00.623Z,0.70
2023-05-02T15:43:27.480Z,3.10
2023-05-02T15:45:55.493Z,0.77
2023-05-02T15:48:23.569Z,1.10
2023-05-02T15:50:50.825Z,0.73
2023-05-02T15:53:17.727Z,0.73
2023-05-02T15:55:45.973Z,1.25
2023-05-02T15:58:13.348Z,1.17
2023-05-02T16:00:40.434Z,1.08
2023-05-02T16:03:07.291Z,1.08
2023-05-02T16:05:35.492Z,1.52
2023-05-02T16:08:02.536Z,0.88
2023-05-02T16:10:29.333Z,4.05
2023-05-02T16:12:56.236Z,1.80
2023-05-02T16:15:23.373Z,2.22
2023-05-02T16:17:50.735Z,1.50
2023-05-02T16:20:18.063Z,2.92
2023-05-02T16:22:46.648Z,1.60
2023-05-02T16:25:14.387Z,0.98
2023-05-02T16:27:41.293Z,0.95
2023-05-02T16:30:08.857Z,2.63
2023-05-02T16:32:37.276Z,1.02
2023-05-02T16:35:07.256Z,1.58
2023-05-02T16:37:37.010Z,1.27
2023-05-02T16:40:05.933Z,0.77
2023-05-02T16:42:33.368Z,2.08
2023-05-02T16:45:00.559Z,0.77
2023-05-02T16:47:28.306Z,3.95
2023-05-02T16:49:59.452Z,1.85
2023-05-02T16:52:26.731Z,1.67
2023-05-02T16:54:53.784Z,2.75
2023-05-02T16:57:21.526Z,1.40
2023-05-02T16:59:51.540Z,1.13
2023-05-02T17:02:22.323Z,1.50
2023-05-02T17:04:50.129Z,3.22
2023-05-02T17:07:17.339Z,1.30
2023-05-02T17:09:44.645Z,0.95
2023-05-02T17:12:12.583Z,1.30
2023-05-02T17:14:41.297Z,3.40
2023-05-02T17:17:08.425Z,2.08
2023-05-02T17:19:35.955Z,0.47
2023-05-02T17:22:05.181Z,1.08
2023-05-02T17:24:32.494Z,1.70
2023-05-02T17:26:59.265Z,0.77
2023-05-02T17:29:26.088Z,1.67
2023-05-02T17:31:52.774Z,2.10
2023-05-02T17:34:19.534Z,2.13
2023-05-02T17:36:47.310Z,2.63
2023-05-02T17:39:15.870Z,0.68
2023-05-02T17:41:42.597Z,1.20
2023-05-02T17:44:09.320Z,1.73
2023-05-02T17:46:36.417Z,2.47
2023-05-02T17:49:03.191Z,2.42
2023-05-02T17:51:30.138Z,0.77
2023-05-02T17:53:57.299Z,2.60
2023-05-02T17:56:23.966Z,8.82
2023-05-02T17:58:50.964Z,0.75
2023-05-02T18:01:17.874Z,5.25
2023-05-02T18:03:45.335Z,3.15
2023-05-02T18:06:16.909Z,3.42
2023-05-02T18:08:44.635Z,2.03
2023-05-02T18:11:19.358Z,3.47
2023-05-02T18:13:46.696Z,2.60
2023-05-02T18:16:14.177Z,2.42
2023-05-02T18:18:41.563Z,1.73
2023-05-02T18:21:09.580Z,2.97
2023-05-02T18:23:36.527Z,1.92
2023-05-02T18:26:11.229Z,2.13
2023-05-02T18:28:37.920Z,1.63
2023-05-02T18:31:04.907Z,2.67
2023-05-02T18:33:31.900Z,1.27
2023-05-02T18:35:58.583Z,3.40
2023-05-02T18:38:25.361Z,1.88
2023-05-02T18:40:53.244Z,4.53
2023-05-02T18:43:19.903Z,1.40
2023-05-02T18:45:46.656Z,2.28
2023-05-02T18:48:13.598Z,2.38
2023-05-02T18:50:40.358Z,2.95
2023-05-02T18:53:07.056Z,3.65
2023-05-02T18:55:33.930Z,3.00
2023-05-02T18:58:00.861Z,3.10
2023-05-02T19:00:31.306Z,1.85
2023-05-02T19:02:58.500Z,5.73
2023-05-02T19:05:26.975Z,1.25
2023-05-02T19:07:53.743Z,2.47
2023-05-02T19:10:20.607Z,2.05
2023-05-02T19:12:47.496Z,3.15
2023-05-02T19:15:14.497Z,1.95
2023-05-02T19:17:41.359Z,2.00
2023-05-02T19:20:09.014Z,1.83
2023-05-02T19:22:37.153Z,5.38
2023-05-02T19:25:04.701Z,2.25
2023-05-02T19:27:31.668Z,5.80
2023-05-02T19:29:58.819Z,3.88
2023-05-02T19:32:25.598Z,2.28
2023-05-02T19:34:52.335Z,1.98
2023-05-02T19:37:19.260Z,4.35
2023-05-02T19:39:46.000Z,3.72
2023-05-02T19:42:13.061Z,5.25
2023-05-02T19:44:40.163Z,4.13
2023-05-02T19:47:06.993Z,2.45
2023-05-02T19:49:33.791Z,1.85
2023-05-02T19:52:00.940Z,3.45
2023-05-02T19:54:27.714Z,5.07
2023-05-02T19:56:54.449Z,3.95
2023-05-02T19:59:21.253Z,5.75
2023-05-02T20:01:48.063Z,3.60
2023-05-02T20:04:14.915Z,4.35
2023-05-02T20:06:41.964Z,6.10
2023-05-02T20:09:08.752Z,4.10
2023-05-02T20:11:35.440Z,2.45
2023-05-02T20:14:02.944Z,4.47
2023-05-02T20:16:31.389Z,4.50
2023-05-02T20:18:58.384Z,7.25
2023-05-02T20:21:25.189Z,4.60
2023-05-02T20:23:51.872Z,5.75
2023-05-02T20:26:18.668Z,3.88
2023-05-02T20:28:45.586Z,1.92
2023-05-02T20:31:12.430Z,1.63
2023-05-02T20:33:45.022Z,3.65
2023-05-02T20:36:13.613Z,3.08
2023-05-02T20:38:42.523Z,7.90
2023-05-02T20:41:12.397Z,2.20
2023-05-02T20:43:44.648Z,4.18
2023-05-02T20:46:12.838Z,4.05
2023-05-02T20:48:39.737Z,5.35
2023-05-02T20:51:06.699Z,5.55
2023-05-02T20:53:33.402Z,6.53
2023-05-02T20:56:00.123Z,1.52
2023-05-02T20:58:26.932Z,2.97
2023-05-02T21:00:54.314Z,2.78
2023-05-02T21:03:21.805Z,1.42
2023-05-02T21:05:53.582Z,5.32
2023-05-02T21:08:20.750Z,3.45
2023-05-02T21:10:47.601Z,2.55
2023-05-02T21:13:14.389Z,3.72
2023-05-02T21:15:41.633Z,2.22
2023-05-02T21:18:08.388Z,1.83
2023-05-02T21:20:36.368Z,1.50
2023-05-02T21:23:03.045Z,2.08
2023-05-02T21:25:29.782Z,1.65
2023-05-02T21:27:56.538Z,2.13
2023-05-02T21:30:24.596Z,4.53
2023-05-02T21:32:51.416Z,3.72
2023-05-02T21:35:18.178Z,3.03
2023-05-02T21:37:44.930Z,4.47
2023-05-02T21:40:12.278Z,5.28
2023-05-02T21:42:39.241Z,3.33
2023-05-02T21:45:07.073Z,3.67
2023-05-02T21:47:33.823Z,4.18
2023-05-02T21:50:00.801Z,3.67
2023-05-02T21:52:28.307Z,3.60
2023-05-02T21:54:54.990Z,3.38
2023-05-02T21:57:21.892Z,4.35
2023-05-02T21:59:48.841Z,4.82
2023-05-02T22:02:15.667Z,3.60
2023-05-02T22:04:43.095Z,3.45
2023-05-02T22:07:09.825Z,5.07
2023-05-02T22:09:36.586Z,7.68
2023-05-02T22:12:03.810Z,5.95
2023-05-02T22:14:41.729Z,2.50
2023-05-02T22:17:12.648Z,3.97
2023-05-02T22:19:40.588Z,5.30
2023-05-02T22:22:07.616Z,2.65
2023-05-02T22:24:34.616Z,7.63
2023-05-02T22:27:01.546Z,2.67
2023-05-02T22:29:28.552Z,3.88
2023-05-02T22:31:55.764Z,5.00
2023-05-02T22:34:23.126Z,2.05
2023-05-02T22:36:50.057Z,5.45
2023-05-02T22:39:16.764Z,4.55
2023-05-02T22:41:43.975Z,4.38
2023-05-02T22:44:11.372Z,3.55
2023-05-02T22:46:39.086Z,4.93
2023-05-02T22:49:10.394Z,7.88
2023-05-02T22:51:40.188Z,3.10
2023-05-02T22:54:08.090Z,5.47
2023-05-02T22:56:35.188Z,5.40
2023-05-02T22:59:01.863Z,5.47
2023-05-02T23:01:28.692Z,7.57
2023-05-02T23:03:55.643Z,5.82
2023-05-02T23:06:22.513Z,7.68
2023-05-02T23:08:49.270Z,7.15
2023-05-02T23:11:16.031Z,6.55
2023-05-02T23:13:42.909Z,8.57
2023-05-02T23:16:09.641Z,8.02
2023-05-02T23:18:36.346Z,7.15
2023-05-02T23:21:04.331Z,5.80
2023-05-02T23:23:31.221Z,8.23
2023-05-02T23:25:58.233Z,9.70
2023-05-02T23:28:26.099Z,7.28
2023-05-02T23:30:53.633Z,5.72
2023-05-02T23:33:20.824Z,5.28
2023-05-02T23:35:48.193Z,4.88
2023-05-02T23:38:15.225Z,8.82
2023-05-02T23:40:41.902Z,3.95
2023-05-02T23:43:08.880Z,4.95
2023-05-02T23:45:35.805Z,8.57
2023-05-02T23:48:02.634Z,7.63
2023-05-02T23:50:29.702Z,7.90
2023-05-02T23:52:56.461Z,8.27
2023-05-02T23:55:23.156Z,10.98
2023-05-02T23:57:49.892Z,14.65
